createdAt,value
2023-05-09T00:00:05.958Z,87.2507
2023-05-09T00:01:07.357Z,87.4967
2023-05-09T00:02:09.073Z,87.4147
2023-05-09T00:03:10.713Z,87.3414
2023-05-09T00:04:12.348Z,87.1775
2023-05-09T00:05:14.219Z,87.0979
2023-05-09T00:06:15.672Z,87.2306
2023-05-09T00:07:17.241Z,87.4457
2023-05-09T00:08:18.902Z,87.3879
2023-05-09T00:09:20.596Z,87.2141
2023-05-09T00:10:22.193Z,87.2894
2023-05-09T00:11:23.833Z,87.0782
2023-05-09T00:12:25.435Z,87.0372
2023-05-09T00:13:27.121Z,87.0324
2023-05-09T00:14:28.742Z,87.2245
2023-05-09T00:15:30.464Z,87.1267
2023-05-09T00:16:32.046Z,87.0824
2023-05-09T00:17:33.723Z,87.1252
2023-05-09T00:18:35.292Z,86.9218
2023-05-09T00:19:36.928Z,87.0485
2023-05-09T00:20:38.611Z,87.2272
2023-05-09T00:21:40.237Z,87.2374
2023-05-09T00:22:41.886Z,87.1729
2023-05-09T00:23:43.534Z,87.4972
2023-05-09T00:24:45.093Z,87.3459
2023-05-09T00:25:46.792Z,87.2568
2023-05-09T00:26:48.434Z,87.2955
2023-05-09T00:27:50.062Z,87.3568
2023-05-09T00:28:51.656Z,87.2465
2023-05-09T00:29:53.321Z,87.1631
2023-05-09T00:30:55.431Z,87.3410
2023-05-09T00:31:56.638Z,87.4492
2023-05-09T00:32:58.291Z,87.2627
2023-05-09T00:33:59.913Z,87.3471
2023-05-09T00:35:02.638Z,87.3597
2023-05-09T00:36:03.448Z,87.1762
2023-05-09T00:37:04.908Z,87.1083
2023-05-09T00:38:06.582Z,87.3467
2023-05-09T00:39:08.187Z,87.3126
2023-05-09T00:40:09.870Z,87.2199
2023-05-09T00:41:11.595Z,87.2195
2023-05-09T00:42:13.172Z,87.1256
2023-05-09T00:43:14.959Z,87.1556
2023-05-09T00:44:16.546Z,87.2209
2023-05-09T00:45:18.143Z,87.3244
2023-05-09T00:46:19.697Z,87.3499
2023-05-09T00:47:21.337Z,87.3384
2023-05-09T00:48:22.970Z,87.2749
2023-05-09T00:49:24.563Z,87.2621
2023-05-09T00:50:26.247Z,87.3417
2023-05-09T00:51:27.981Z,87.3449
2023-05-09T00:52:29.542Z,87.4516
2023-05-09T00:53:32.047Z,87.2822
2023-05-09T00:54:32.799Z,87.2455
2023-05-09T00:55:34.402Z,87.2400
2023-05-09T00:56:36.070Z,87.1967
2023-05-09T00:57:37.788Z,87.1438
2023-05-09T00:58:39.370Z,87.1160
2023-05-09T00:59:41.009Z,87.1847
2023-05-09T01:00:42.653Z,87.3506
2023-05-09T01:01:44.317Z,87.1239
2023-05-09T01:02:46.181Z,87.1388
2023-05-09T01:03:47.726Z,87.0870
2023-05-09T01:04:49.195Z,87.0559
2023-05-09T01:05:51.191Z,86.9723
2023-05-09T01:06:52.482Z,86.9695
2023-05-09T01:07:54.229Z,86.9792
2023-05-09T01:08:55.739Z,87.0515
2023-05-09T01:09:57.361Z,86.8432
2023-05-09T01:11:00.107Z,86.9251
2023-05-09T01:12:00.629Z,86.9061
2023-05-09T01:13:02.282Z,86.8655
2023-05-09T01:14:03.908Z,86.6913
2023-05-09T01:15:05.485Z,86.6338
2023-05-09T01:16:07.207Z,86.5579
2023-05-09T01:17:08.782Z,86.4851
2023-05-09T01:18:10.559Z,86.4522
2023-05-09T01:19:12.093Z,86.3030
2023-05-09T01:20:13.724Z,86.2414
2023-05-09T01:21:15.311Z,86.2562
2023-05-09T01:22:17.070Z,86.2511
2023-05-09T01:23:18.663Z,86.2549
2023-05-09T01:24:20.309Z,86.3528
2023-05-09T01:25:21.880Z,86.3608
2023-05-09T01:26:23.558Z,86.4941
2023-05-09T01:27:25.179Z,86.3255
2023-05-09T01:28:27.113Z,86.1266
2023-05-09T01:29:28.425Z,86.1414
2023-05-09T01:30:30.111Z,86.2068
2023-05-09T01:31:31.768Z,86.0191
2023-05-09T01:32:33.456Z,85.9631
2023-05-09T01:33:35.003Z,86.0430
2023-05-09T01:34:36.667Z,86.0152
2023-05-09T01:35:38.304Z,85.8861
2023-05-09T01:36:39.960Z,85.6839
2023-05-09T01:37:41.606Z,85.6238
2023-05-09T01:38:43.253Z,85.6093
2023-05-09T01:39:44.821Z,85.3759
2023-05-09T01:40:46.526Z,85.3194
2023-05-09T01:41:48.095Z,85.4768
2023-05-09T01:42:49.819Z,85.5723
2023-05-09T01:43:51.482Z,85.5268
2023-05-09T01:44:53.074Z,85.3225
2023-05-09T01:45:54.731Z,85.1410
2023-05-09T01:46:56.400Z,85.3625
2023-05-09T01:47:58.007Z,85.5024
2023-05-09T01:48:59.661Z,85.4389
2023-05-09T01:50:01.256Z,85.5098
2023-05-09T01:51:02.916Z,85.5257
2023-05-09T01:52:04.558Z,85.5043
2023-05-09T01:53:06.207Z,85.2523
2023-05-09T01:54:07.902Z,85.0732
2023-05-09T01:55:09.522Z,85.1734
2023-05-09T01:56:11.135Z,85.2705
2023-05-09T01:57:12.732Z,85.2390
2023-05-09T01:58:14.413Z,85.1633
2023-05-09T01:59:16.160Z,85.2342
2023-05-09T02:00:18.136Z,85.3438
2023-05-09T02:01:19.307Z,85.2908
2023-05-09T02:02:20.949Z,85.0025
2023-05-09T02:03:22.658Z,84.7546
2023-05-09T02:04:24.604Z,84.7768
2023-05-09T02:05:25.884Z,84.6735
2023-05-09T02:06:27.453Z,84.5521
2023-05-09T02:07:29.131Z,84.6898
2023-05-09T02:08:30.838Z,84.7774
2023-05-09T02:09:32.458Z,84.8636
2023-05-09T02:10:34.084Z,84.8715
2023-05-09T02:11:35.678Z,84.7241
2023-05-09T02:12:37.319Z,84.6153
2023-05-09T02:13:38.909Z,84.6049
2023-05-09T02:14:40.613Z,84.5360
2023-05-09T02:15:42.180Z,84.4563
2023-05-09T02:16:43.971Z,84.5862
2023-05-09T02:17:45.470Z,84.6947
2023-05-09T02:18:47.121Z,84.6204
2023-05-09T02:19:48.822Z,84.3621
2023-05-09T02:20:50.489Z,84.2243
2023-05-09T02:21:52.064Z,84.2714
2023-05-09T02:22:53.709Z,84.1446
2023-05-09T02:23:55.252Z,84.1071
2023-05-09T02:24:57.000Z,84.2667
2023-05-09T02:25:58.655Z,84.5539
2023-05-09T02:27:00.222Z,84.5816
2023-05-09T02:28:01.879Z,84.4272
2023-05-09T02:29:03.470Z,84.2334
2023-05-09T02:30:05.124Z,84.1753
2023-05-09T02:31:06.809Z,84.1589
2023-05-09T02:32:08.449Z,84.2210
2023-05-09T02:33:10.046Z,84.4920
2023-05-09T02:34:11.639Z,84.6120
2023-05-09T02:35:13.620Z,84.5351
2023-05-09T02:36:14.947Z,84.2190
2023-05-09T02:37:16.601Z,84.0133
2023-05-09T02:38:18.199Z,83.9553
2023-05-09T02:39:19.909Z,83.7878
2023-05-09T02:40:21.620Z,83.9307
2023-05-09T02:41:23.180Z,84.0803
2023-05-09T02:42:24.783Z,84.2868
2023-05-09T02:43:26.449Z,84.4215
2023-05-09T02:44:28.035Z,84.4683
2023-05-09T02:45:29.784Z,84.2368
2023-05-09T02:46:31.443Z,83.9103
2023-05-09T02:47:33.052Z,83.8405
2023-05-09T02:48:34.638Z,83.7882
2023-05-09T02:49:36.307Z,83.8799
2023-05-09T02:50:38.023Z,84.0540
2023-05-09T02:51:40.112Z,84.2498
2023-05-09T02:52:41.296Z,84.2487
2023-05-09T02:53:42.845Z,83.9631
2023-05-09T02:54:44.470Z,83.3421
2023-05-09T02:55:46.170Z,82.4451
2023-05-09T02:56:48.088Z,81.6580
2023-05-09T02:57:53.993Z,80.9118
2023-05-09T02:58:51.104Z,80.1653
2023-05-09T02:59:52.704Z,79.2211
2023-05-09T03:00:54.407Z,78.1268
2023-05-09T03:01:56.070Z,77.4711
2023-05-09T03:02:57.724Z,77.3395
2023-05-09T03:03:59.277Z,77.3913
2023-05-09T03:05:00.906Z,77.3771
2023-05-09T03:06:02.581Z,77.6334
2023-05-09T03:07:05.098Z,77.8892
2023-05-09T03:08:05.912Z,78.1117
2023-05-09T03:09:07.504Z,78.2400
2023-05-09T03:10:09.089Z,78.3257
2023-05-09T03:11:10.812Z,78.3822
2023-05-09T03:12:12.416Z,78.2982
2023-05-09T03:13:14.126Z,78.2073
2023-05-09T03:14:15.656Z,78.1897
2023-05-09T03:15:17.349Z,78.1112
2023-05-09T03:16:18.911Z,78.1258
2023-05-09T03:17:21.608Z,78.2365
2023-05-09T03:18:22.228Z,78.1673
2023-05-09T03:19:23.934Z,78.0144
2023-05-09T03:20:25.484Z,77.8983
2023-05-09T03:21:27.189Z,77.7784
2023-05-09T03:22:28.822Z,77.9113
2023-05-09T03:23:30.432Z,78.1391
2023-05-09T03:24:32.098Z,78.0579
2023-05-09T03:25:33.784Z,77.8233
2023-05-09T03:26:35.380Z,77.5897
2023-05-09T03:27:37.079Z,77.4493
2023-05-09T03:28:38.605Z,77.4616
2023-05-09T03:29:40.283Z,77.5717
2023-05-09T03:30:41.907Z,77.5882
2023-05-09T03:31:43.630Z,77.6817
2023-05-09T03:32:45.285Z,77.4050
2023-05-09T03:33:46.859Z,77.3891
2023-05-09T03:34:48.532Z,77.3574
2023-05-09T03:35:50.110Z,77.2301
2023-05-09T03:36:51.793Z,77.2685
2023-05-09T03:37:53.447Z,77.2601
2023-05-09T03:38:55.034Z,77.3530
2023-05-09T03:39:56.695Z,77.3927
2023-05-09T03:40:59.237Z,77.3716
2023-05-09T03:41:59.997Z,77.3435
2023-05-09T03:43:01.637Z,77.2630
2023-05-09T03:44:03.367Z,77.2943
2023-05-09T03:45:04.839Z,77.3723
2023-05-09T03:46:06.505Z,77.3441
2023-05-09T03:47:08.143Z,77.2197
2023-05-09T03:48:30.826Z,77.1745
2023-05-09T03:49:11.447Z,77.0289
2023-05-09T03:50:13.080Z,76.8827
2023-05-09T03:51:14.698Z,76.8743
2023-05-09T03:52:16.578Z,76.9199
2023-05-09T03:53:18.000Z,77.0313
2023-05-09T03:54:19.702Z,77.2116
2023-05-09T03:55:21.368Z,77.4617
2023-05-09T03:56:22.963Z,77.7141
2023-05-09T03:57:25.116Z,77.8711
2023-05-09T03:58:26.207Z,77.9388
2023-05-09T03:59:28.593Z,78.0069
2023-05-09T04:00:29.567Z,78.0540
2023-05-09T04:01:31.154Z,78.2014
2023-05-09T04:02:32.989Z,78.0920
2023-05-09T04:03:34.481Z,78.0149
2023-05-09T04:04:36.034Z,77.9414
2023-05-09T04:05:37.699Z,77.7559
2023-05-09T04:06:39.372Z,77.8339
2023-05-09T04:07:41.101Z,77.9876
2023-05-09T04:08:42.763Z,77.9437
2023-05-09T04:09:44.337Z,77.9256
2023-05-09T04:10:45.996Z,77.9717
2023-05-09T04:11:47.649Z,77.9854
2023-05-09T04:12:49.372Z,78.1642
2023-05-09T04:13:50.920Z,78.3229
2023-05-09T04:14:52.581Z,78.3722
2023-05-09T04:15:54.206Z,78.1197
2023-05-09T04:16:55.934Z,78.2907
2023-05-09T04:17:57.560Z,78.4171
2023-05-09T04:18:59.224Z,78.2437
2023-05-09T04:20:00.742Z,78.0945
2023-05-09T04:21:02.429Z,78.0028
2023-05-09T04:22:04.018Z,77.9786
2023-05-09T04:23:05.864Z,78.3279
2023-05-09T04:24:07.398Z,78.4980
2023-05-09T04:25:09.002Z,78.3451
2023-05-09T04:26:10.694Z,78.1501
2023-05-09T04:27:12.297Z,78.0684
2023-05-09T04:28:13.970Z,78.0839
2023-05-09T04:29:15.545Z,78.1532
2023-05-09T04:30:17.190Z,78.1722
2023-05-09T04:31:18.907Z,78.4160
2023-05-09T04:32:20.550Z,78.7276
2023-05-09T04:33:22.180Z,78.7166
2023-05-09T04:34:23.758Z,78.5693
2023-05-09T04:35:25.409Z,78.4602
2023-05-09T04:36:27.062Z,78.4243
2023-05-09T04:37:28.686Z,78.2811
2023-05-09T04:38:30.404Z,78.3007
2023-05-09T04:39:31.937Z,78.5089
2023-05-09T04:40:33.715Z,78.6979
2023-05-09T04:41:35.270Z,78.9614
2023-05-09T04:42:36.976Z,78.9270
2023-05-09T04:43:38.586Z,78.8465
2023-05-09T04:44:40.294Z,78.8760
2023-05-09T04:45:41.914Z,78.7861
2023-05-09T04:46:43.644Z,78.7223
2023-05-09T04:47:45.129Z,78.7483
2023-05-09T04:48:47.206Z,78.8471
2023-05-09T04:49:48.381Z,78.9246
2023-05-09T04:50:50.054Z,78.8402
2023-05-09T04:51:51.713Z,78.7851
2023-05-09T04:52:53.321Z,78.5464
2023-05-09T04:53:55.070Z,78.0538
2023-05-09T04:54:57.105Z,77.0943
2023-05-09T04:55:58.232Z,76.1970
2023-05-09T04:57:09.819Z,74.7217
2023-05-09T04:58:01.580Z,73.3793
2023-05-09T04:59:04.211Z,72.2525
2023-05-09T05:00:04.873Z,71.5576
2023-05-09T05:01:06.544Z,71.0713
2023-05-09T05:02:08.179Z,70.6233
2023-05-09T05:03:09.744Z,70.1213
2023-05-09T05:04:11.445Z,69.3746
2023-05-09T05:05:13.038Z,68.6890
2023-05-09T05:06:14.655Z,68.3461
2023-05-09T05:07:16.343Z,67.5278
2023-05-09T05:08:17.927Z,67.4753
2023-05-09T05:09:19.585Z,67.6125
2023-05-09T05:10:21.200Z,67.2366
2023-05-09T05:11:22.923Z,66.8100
2023-05-09T05:12:24.565Z,66.5521
2023-05-09T05:13:26.184Z,65.8924
2023-05-09T05:14:27.831Z,65.7718
2023-05-09T05:15:29.569Z,65.9567
2023-05-09T05:16:31.102Z,66.1051
2023-05-09T05:17:32.710Z,66.0809
2023-05-09T05:18:34.431Z,65.5900
2023-05-09T05:19:36.048Z,64.9798
2023-05-09T05:20:38.631Z,65.3109
2023-05-09T05:21:39.323Z,65.7479
2023-05-09T05:22:40.851Z,65.6897
2023-05-09T05:23:42.460Z,65.6908
2023-05-09T05:24:44.147Z,64.8994
2023-05-09T05:25:45.789Z,65.3730
2023-05-09T05:26:47.409Z,65.9193
2023-05-09T05:27:49.024Z,66.1132
2023-05-09T05:28:50.774Z,65.6779
2023-05-09T05:29:52.371Z,65.7898
2023-05-09T05:30:54.001Z,64.8699
2023-05-09T05:31:55.776Z,64.6878
2023-05-09T05:32:57.314Z,64.9922
2023-05-09T05:33:59.935Z,65.2924
2023-05-09T05:35:01.799Z,65.3026
2023-05-09T05:36:02.352Z,64.5381
2023-05-09T05:37:03.948Z,64.1989
2023-05-09T05:38:05.622Z,64.7529
2023-05-09T05:39:07.221Z,65.6023
2023-05-09T05:40:08.869Z,65.7214
2023-05-09T05:41:10.594Z,65.2625
2023-05-09T05:42:12.092Z,63.6829
2023-05-09T05:43:13.806Z,64.0634
2023-05-09T05:44:15.505Z,64.6317
2023-05-09T05:45:17.303Z,66.1791
2023-05-09T05:46:18.828Z,66.1503
2023-05-09T05:47:20.353Z,64.6852
2023-05-09T05:48:21.960Z,63.6855
2023-05-09T05:49:23.615Z,64.1038
2023-05-09T05:50:25.253Z,65.2165
2023-05-09T05:51:26.989Z,66.1380
2023-05-09T05:52:28.529Z,65.1691
2023-05-09T05:53:32.086Z,63.5449
2023-05-09T05:54:31.800Z,63.5103
2023-05-09T05:55:33.519Z,64.2815
2023-05-09T05:56:35.126Z,66.2087
2023-05-09T05:57:36.825Z,66.3436
2023-05-09T05:58:38.361Z,64.4356
2023-05-09T05:59:40.060Z,64.1760
2023-05-09T06:00:41.731Z,64.8108
2023-05-09T06:01:43.440Z,66.2606
2023-05-09T06:02:45.112Z,66.7534
2023-05-09T06:03:46.730Z,64.8905
2023-05-09T06:04:48.260Z,63.8457
2023-05-09T06:05:49.887Z,64.5618
2023-05-09T06:06:52.201Z,65.6846
2023-05-09T06:07:53.201Z,66.8181
2023-05-09T06:08:54.823Z,65.8995
2023-05-09T06:09:56.480Z,64.2219
2023-05-09T06:10:58.145Z,64.5237
2023-05-09T06:11:59.761Z,66.2787
2023-05-09T06:13:01.441Z,67.9391
2023-05-09T06:14:02.973Z,68.0099
2023-05-09T06:15:04.682Z,66.4824
2023-05-09T06:16:18.454Z,65.9753
2023-05-09T06:17:08.124Z,66.2912
2023-05-09T06:18:09.625Z,67.4003
2023-05-09T06:19:11.313Z,67.5608
2023-05-09T06:20:12.987Z,66.7545
2023-05-09T06:21:14.589Z,65.0144
2023-05-09T06:22:16.224Z,65.3291
2023-05-09T06:23:17.860Z,66.0136
2023-05-09T06:24:27.967Z,67.2463
2023-05-09T06:25:21.158Z,67.2374
2023-05-09T06:26:22.761Z,65.1716
2023-05-09T06:27:24.389Z,64.5359
2023-05-09T06:28:26.086Z,65.1691
2023-05-09T06:29:27.597Z,67.0945
2023-05-09T06:30:29.324Z,68.1980
2023-05-09T06:31:31.067Z,68.3492
2023-05-09T06:32:32.637Z,67.3396
2023-05-09T06:33:34.188Z,66.3154
2023-05-09T06:34:35.864Z,67.4165
2023-05-09T06:35:37.521Z,68.4161
2023-05-09T06:36:39.228Z,68.4677
2023-05-09T06:37:40.802Z,67.7862
2023-05-09T06:38:42.399Z,66.5490
2023-05-09T06:39:44.104Z,64.8799
2023-05-09T06:40:45.752Z,65.4695
2023-05-09T06:41:47.414Z,66.5011
2023-05-09T06:42:49.065Z,67.5971
2023-05-09T06:43:50.518Z,66.9019
2023-05-09T06:44:53.203Z,64.3387
2023-05-09T06:45:53.811Z,63.9125
2023-05-09T06:46:55.473Z,65.0583
2023-05-09T06:47:57.135Z,67.1516
2023-05-09T06:48:58.687Z,67.2580
2023-05-09T06:50:00.405Z,64.7577
2023-05-09T06:51:02.030Z,64.0012
2023-05-09T06:52:03.695Z,64.8223
2023-05-09T06:53:05.302Z,66.6930
2023-05-09T06:54:07.024Z,68.2942
2023-05-09T06:55:11.168Z,68.6446
2023-05-09T06:56:10.187Z,68.6255
2023-05-09T06:57:12.103Z,68.1163
2023-05-09T06:58:13.618Z,67.5118
2023-05-09T06:59:15.134Z,67.0429
2023-05-09T07:00:16.822Z,67.6647
2023-05-09T07:01:18.643Z,68.2593
2023-05-09T07:02:20.175Z,68.3688
2023-05-09T07:03:21.896Z,67.7240
2023-05-09T07:04:23.500Z,66.9437
2023-05-09T07:05:26.220Z,67.5446
2023-05-09T07:06:26.761Z,67.4341
2023-05-09T07:07:28.426Z,66.9528
2023-05-09T07:08:30.090Z,65.6866
2023-05-09T07:09:32.377Z,65.9285
2023-05-09T07:10:33.322Z,67.3341
2023-05-09T07:11:34.911Z,67.9961
2023-05-09T07:12:36.665Z,67.4282
2023-05-09T07:13:38.288Z,65.1086
2023-05-09T07:14:39.836Z,64.2410
2023-05-09T07:15:42.885Z,64.2503
2023-05-09T07:16:43.325Z,65.2030
2023-05-09T07:17:44.881Z,66.4203
2023-05-09T07:18:46.483Z,66.7395
2023-05-09T07:19:48.089Z,66.0210
2023-05-09T07:20:49.726Z,65.2905
2023-05-09T07:21:51.387Z,65.6438
2023-05-09T07:22:53.974Z,66.3554
2023-05-09T07:23:54.703Z,67.2994
2023-05-09T07:24:56.266Z,67.6288
2023-05-09T07:25:57.981Z,67.0413
2023-05-09T07:26:59.637Z,65.5631
2023-05-09T07:28:01.309Z,65.7163
2023-05-09T07:29:02.886Z,66.4423
2023-05-09T07:30:04.498Z,67.1024
2023-05-09T07:31:06.142Z,66.7117
2023-05-09T07:32:08.034Z,65.3893
2023-05-09T07:33:09.431Z,65.1454
2023-05-09T07:34:11.059Z,65.6386
2023-05-09T07:35:13.024Z,66.4172
2023-05-09T07:36:14.427Z,66.6337
2023-05-09T07:37:16.929Z,65.3478
2023-05-09T07:38:17.731Z,65.3255
2023-05-09T07:39:20.222Z,65.8518
2023-05-09T07:40:21.930Z,66.6375
2023-05-09T07:41:22.489Z,66.0166
2023-05-09T07:42:24.140Z,65.1341
2023-05-09T07:43:25.844Z,65.5002
2023-05-09T07:44:27.519Z,65.5729
2023-05-09T07:45:29.145Z,65.5921
2023-05-09T07:46:30.818Z,64.1092
2023-05-09T07:47:32.381Z,63.3942
2023-05-09T07:48:34.005Z,63.5797
2023-05-09T07:49:35.610Z,63.5872
2023-05-09T07:50:37.384Z,64.0090
2023-05-09T07:51:38.902Z,63.2528
2023-05-09T07:52:40.585Z,61.9932
2023-05-09T07:53:42.137Z,62.6154
2023-05-09T07:54:43.930Z,63.7978
2023-05-09T07:55:45.555Z,65.4958
2023-05-09T07:56:47.437Z,66.8462
2023-05-09T07:57:48.725Z,67.6012
2023-05-09T07:58:52.152Z,66.9449
2023-05-09T07:59:52.031Z,67.3215
2023-05-09T08:00:53.615Z,68.6813
2023-05-09T08:01:55.349Z,70.0393
2023-05-09T08:02:57.912Z,70.5078
2023-05-09T08:03:59.401Z,71.2456
2023-05-09T08:05:00.232Z,71.0168
2023-05-09T08:06:02.241Z,69.3479
2023-05-09T08:07:03.462Z,69.5386
2023-05-09T08:08:05.162Z,70.8265
2023-05-09T08:09:06.815Z,71.6959
2023-05-09T08:10:08.517Z,71.8908
2023-05-09T08:11:10.149Z,69.6237
2023-05-09T08:12:11.724Z,68.6827
2023-05-09T08:13:13.445Z,69.8531
2023-05-09T08:14:15.734Z,71.0652
2023-05-09T08:15:17.093Z,72.1681
2023-05-09T08:16:18.386Z,71.9893
2023-05-09T08:17:19.991Z,69.7876
2023-05-09T08:18:21.630Z,69.7349
2023-05-09T08:19:23.781Z,70.8097
2023-05-09T08:20:25.295Z,72.1024
2023-05-09T08:21:26.521Z,72.8911
2023-05-09T08:22:28.200Z,72.7014
2023-05-09T08:23:29.798Z,71.3942
2023-05-09T08:24:31.582Z,71.5130
2023-05-09T08:25:33.078Z,72.6359
2023-05-09T08:26:34.818Z,73.2300
2023-05-09T08:27:36.409Z,73.3827
2023-05-09T08:28:38.007Z,72.1339
2023-05-09T08:29:39.700Z,70.2050
2023-05-09T08:30:41.356Z,70.8788
2023-05-09T08:31:42.907Z,72.5836
2023-05-09T08:32:44.649Z,73.7781
2023-05-09T08:33:46.238Z,74.5760
2023-05-09T08:34:47.910Z,73.5213
2023-05-09T08:35:49.520Z,71.5691
2023-05-09T08:36:51.241Z,71.8742
2023-05-09T08:37:52.785Z,72.9519
2023-05-09T08:38:54.472Z,73.5862
2023-05-09T08:39:56.064Z,73.9778
2023-05-09T08:40:57.768Z,72.2458
2023-05-09T08:41:59.362Z,71.0929
2023-05-09T08:43:00.986Z,72.4707
2023-05-09T08:44:02.635Z,73.5244
2023-05-09T08:45:04.285Z,74.0860
2023-05-09T08:46:05.918Z,74.3988
2023-05-09T08:47:07.565Z,72.7665
2023-05-09T08:48:09.218Z,71.7565
2023-05-09T08:49:10.880Z,72.9897
2023-05-09T08:50:12.616Z,74.3044
2023-05-09T08:51:14.104Z,75.1218
2023-05-09T08:52:15.683Z,75.0823
2023-05-09T08:53:17.407Z,74.2310
2023-05-09T08:54:20.676Z,72.9686
2023-05-09T08:55:20.790Z,73.7382
2023-05-09T08:56:22.369Z,74.8945
2023-05-09T08:57:24.068Z,75.4749
2023-05-09T08:58:25.554Z,74.9987
2023-05-09T08:59:27.298Z,74.3316
2023-05-09T09:00:28.863Z,72.9645
2023-05-09T09:01:30.482Z,72.9464
2023-05-09T09:02:32.136Z,73.8427
2023-05-09T09:03:33.723Z,74.4948
2023-05-09T09:04:35.433Z,74.1572
2023-05-09T09:05:41.758Z,73.5292
2023-05-09T09:06:38.670Z,71.8117
2023-05-09T09:07:40.346Z,71.5291
2023-05-09T09:08:41.966Z,72.3976
2023-05-09T09:09:43.638Z,73.3828
2023-05-09T09:10:45.276Z,73.6739
2023-05-09T09:11:46.816Z,72.6822
2023-05-09T09:12:50.152Z,71.1094
2023-05-09T09:13:50.185Z,71.2195
2023-05-09T09:14:51.804Z,72.4189
2023-05-09T09:15:53.454Z,73.5391
2023-05-09T09:16:55.163Z,73.4462
2023-05-09T09:17:56.773Z,72.1998
2023-05-09T09:18:59.035Z,70.6997
2023-05-09T09:20:00.021Z,70.5842
2023-05-09T09:21:01.678Z,71.5447
2023-05-09T09:22:03.359Z,72.6660
2023-05-09T09:23:04.903Z,72.6332
2023-05-09T09:24:06.543Z,71.9553
2023-05-09T09:25:08.229Z,70.5442
2023-05-09T09:26:09.862Z,70.2499
2023-05-09T09:27:11.479Z,71.2412
2023-05-09T09:28:13.033Z,72.3501
2023-05-09T09:29:14.734Z,72.3437
2023-05-09T09:30:16.530Z,71.3461
2023-05-09T09:31:18.845Z,69.7808
2023-05-09T09:32:20.369Z,69.8563
2023-05-09T09:33:21.290Z,71.1233
2023-05-09T09:34:22.946Z,71.6894
2023-05-09T09:35:24.573Z,71.8663
2023-05-09T09:36:26.280Z,71.1912
2023-05-09T09:37:27.894Z,69.5305
2023-05-09T09:38:29.480Z,68.9932
2023-05-09T09:39:31.155Z,69.9130
2023-05-09T09:40:32.759Z,71.0294
2023-05-09T09:41:34.462Z,71.1630
2023-05-09T09:42:36.765Z,70.1978
2023-05-09T09:43:37.746Z,68.6250
2023-05-09T09:44:39.366Z,68.6352
2023-05-09T09:45:41.095Z,69.9524
2023-05-09T09:46:42.626Z,70.8896
2023-05-09T09:47:44.292Z,70.9439
2023-05-09T09:48:45.917Z,69.8635
2023-05-09T09:49:47.537Z,68.5606
2023-05-09T09:50:49.065Z,68.1452
2023-05-09T09:51:50.790Z,69.1963
2023-05-09T09:52:52.365Z,70.1654
2023-05-09T09:53:54.849Z,70.3110
2023-05-09T09:54:55.700Z,69.2449
2023-05-09T09:55:57.399Z,68.3190
2023-05-09T09:56:58.948Z,68.4030
2023-05-09T09:58:00.580Z,69.7862
2023-05-09T09:59:02.185Z,70.4462
2023-05-09T10:00:03.889Z,70.4418
2023-05-09T10:01:06.371Z,69.3832
2023-05-09T10:02:08.259Z,68.5940
2023-05-09T10:03:08.848Z,68.5576
2023-05-09T10:04:10.643Z,69.6386
2023-05-09T10:05:12.275Z,70.8349
2023-05-09T10:06:13.866Z,70.4268
2023-05-09T10:07:18.987Z,69.3358
2023-05-09T10:08:21.905Z,68.1589
2023-05-09T10:09:23.529Z,68.1488
2023-05-09T10:10:26.159Z,69.0963
2023-05-09T10:11:26.755Z,70.0033
2023-05-09T10:12:28.934Z,69.6221
2023-05-09T10:13:30.260Z,68.4205
2023-05-09T10:14:33.510Z,67.7415
2023-05-09T10:15:41.403Z,67.6658
2023-05-09T10:16:43.597Z,68.8423
2023-05-09T10:17:36.823Z,69.9624
2023-05-09T10:18:38.452Z,69.5706
2023-05-09T10:19:39.900Z,68.2196
2023-05-09T10:20:41.579Z,67.4758
2023-05-09T10:21:43.267Z,67.9682
2023-05-09T10:22:44.890Z,69.1169
2023-05-09T10:23:46.448Z,70.1189
2023-05-09T10:24:48.082Z,69.6433
2023-05-09T10:25:50.462Z,68.2479
2023-05-09T10:26:51.371Z,67.3242
2023-05-09T10:27:53.111Z,67.3356
2023-05-09T10:28:54.701Z,68.4235
2023-05-09T10:29:56.960Z,69.6054
2023-05-09T10:30:58.973Z,68.8047
2023-05-09T10:31:59.549Z,67.6885
2023-05-09T10:33:01.312Z,66.9074
2023-05-09T10:34:02.936Z,67.2436
2023-05-09T10:35:05.470Z,68.4976
2023-05-09T10:36:06.270Z,69.4097
2023-05-09T10:37:07.819Z,68.6761
2023-05-09T10:38:09.462Z,67.0765
2023-05-09T10:39:11.093Z,66.1530
2023-05-09T10:40:12.793Z,66.7268
2023-05-09T10:41:14.398Z,68.0381
2023-05-09T10:42:16.068Z,68.8066
2023-05-09T10:43:17.743Z,67.9556
2023-05-09T10:44:19.342Z,66.8148
2023-05-09T10:45:20.924Z,65.9616
2023-05-09T10:46:22.607Z,66.4592
2023-05-09T10:47:24.251Z,67.7455
2023-05-09T10:48:25.848Z,68.5822
2023-05-09T10:49:27.557Z,67.5649
2023-05-09T10:50:30.084Z,66.2557
2023-05-09T10:51:30.874Z,65.6292
2023-05-09T10:52:32.478Z,66.3854
2023-05-09T10:53:35.416Z,67.7536
2023-05-09T10:54:35.695Z,68.5003
2023-05-09T10:55:37.336Z,67.0826
2023-05-09T10:56:38.967Z,65.7308
2023-05-09T10:57:40.949Z,65.0955
2023-05-09T10:58:42.309Z,65.8173
2023-05-09T10:59:43.902Z,67.0195
2023-05-09T11:00:45.548Z,67.8888
2023-05-09T11:01:48.331Z,66.9269
2023-05-09T11:02:48.778Z,65.4366
2023-05-09T11:03:51.126Z,64.6767
2023-05-09T11:04:52.085Z,65.1973
2023-05-09T11:05:53.695Z,66.4367
2023-05-09T11:06:57.144Z,66.9540
2023-05-09T11:07:57.050Z,65.9027
2023-05-09T11:08:58.659Z,64.8207
2023-05-09T11:10:00.317Z,64.3136
2023-05-09T11:11:01.914Z,65.3418
2023-05-09T11:12:03.608Z,66.4316
2023-05-09T11:13:05.220Z,67.2700
2023-05-09T11:14:06.844Z,66.8486
2023-05-09T11:15:08.499Z,65.3891
2023-05-09T11:16:10.129Z,64.7150
2023-05-09T11:17:11.791Z,64.9450
2023-05-09T11:18:13.419Z,65.9486
2023-05-09T11:19:15.134Z,66.8364
2023-05-09T11:20:16.832Z,66.4068
2023-05-09T11:21:18.312Z,64.8034
2023-05-09T11:22:19.993Z,64.3429
2023-05-09T11:23:21.630Z,64.7065
2023-05-09T11:24:23.309Z,65.7056
2023-05-09T11:25:24.886Z,66.6736
2023-05-09T11:26:26.484Z,66.8517
2023-05-09T11:27:28.402Z,65.5063
2023-05-09T11:28:29.816Z,64.7054
2023-05-09T11:29:32.381Z,64.4009
2023-05-09T11:30:33.143Z,65.2440
2023-05-09T11:31:34.732Z,66.1877
2023-05-09T11:32:36.397Z,66.7434
2023-05-09T11:33:38.085Z,65.6417
2023-05-09T11:34:39.769Z,64.7673
2023-05-09T11:35:41.283Z,64.3791
2023-05-09T11:36:43.084Z,65.1224
2023-05-09T11:37:44.709Z,66.1804
2023-05-09T11:38:46.245Z,66.7399
2023-05-09T11:39:48.365Z,65.3395
2023-05-09T11:40:49.594Z,64.2312
2023-05-09T11:41:51.224Z,64.0327
2023-05-09T11:42:54.068Z,64.3807
2023-05-09T11:43:54.490Z,65.3617
2023-05-09T11:44:56.163Z,66.1027
2023-05-09T11:45:57.769Z,66.0352
2023-05-09T11:46:59.368Z,64.6116
2023-05-09T11:48:01.364Z,64.0570
2023-05-09T11:49:02.641Z,64.3177
2023-05-09T11:50:04.351Z,65.2110
2023-05-09T11:51:07.850Z,66.0083
2023-05-09T11:52:07.598Z,66.2113
2023-05-09T11:53:09.326Z,64.9037
2023-05-09T11:54:10.921Z,64.4548
2023-05-09T11:55:12.901Z,64.3421
2023-05-09T11:56:14.171Z,65.0913
2023-05-09T11:57:15.872Z,66.2748
2023-05-09T11:58:17.373Z,66.6129
2023-05-09T11:59:19.126Z,65.4141
2023-05-09T12:00:20.791Z,64.5112
2023-05-09T12:01:22.417Z,64.3224
2023-05-09T12:02:24.796Z,64.9679
2023-05-09T12:03:25.959Z,65.9636
2023-05-09T12:04:27.339Z,66.7608
2023-05-09T12:05:28.980Z,65.9741
2023-05-09T12:06:30.565Z,64.9402
2023-05-09T12:07:32.212Z,64.7693
2023-05-09T12:08:33.816Z,64.7865
2023-05-09T12:09:35.509Z,65.5479
2023-05-09T12:10:37.118Z,66.3119
2023-05-09T12:11:38.916Z,66.5343
2023-05-09T12:12:40.507Z,65.2812
2023-05-09T12:13:42.096Z,65.0666
2023-05-09T12:14:43.755Z,64.9966
2023-05-09T12:15:45.963Z,65.6873
2023-05-09T12:16:47.106Z,66.4902
2023-05-09T12:17:51.848Z,66.8807
2023-05-09T12:18:50.359Z,66.1400
2023-05-09T12:19:51.974Z,65.4843
2023-05-09T12:20:53.650Z,65.2695
2023-05-09T12:21:55.301Z,65.7970
2023-05-09T12:22:56.934Z,66.7727
2023-05-09T12:23:58.808Z,67.1597
2023-05-09T12:25:00.160Z,66.7526